createdAt,value
2017-07-27T00:00:49.173Z,32.53
2017-07-27T00:03:15.193Z,31.30
2017-07-27T00:05:41.218Z,24.77
2017-07-27T00:08:07.984Z,27.73
2017-07-27T00:10:34.003Z,26.97
2017-07-27T00:13:00.035Z,24.10
2017-07-27T00:15:26.082Z,27.73
2017-07-27T00:17:52.110Z,28.43
2017-07-27T00:20:18.141Z,35.13
2017-07-27T00:22:44.158Z,26.70
2017-07-27T00:25:10.175Z,32.57
2017-07-27T00:27:36.200Z,29.63
2017-07-27T00:30:02.226Z,26.93
2017-07-27T00:32:28.997Z,29.10
2017-07-27T00:34:55.022Z,38.50
2017-07-27T00:37:21.053Z,28.80
2017-07-27T00:39:47.074Z,33.37
2017-07-27T00:42:13.910Z,26.00
2017-07-27T00:44:40.653Z,26.63
2017-07-27T00:47:06.693Z,24.50
2017-07-27T00:49:32.714Z,27.30
2017-07-27T00:51:58.730Z,24.90
2017-07-27T00:54:24.754Z,34.43
2017-07-27T00:56:50.780Z,25.50
2017-07-27T00:59:16.806Z,29.20
2017-07-27T01:01:42.822Z,27.90
2017-07-27T01:04:08.868Z,28.03
2017-07-27T01:06:34.899Z,30.70
2017-07-27T01:09:01.687Z,26.27
2017-07-27T01:11:27.717Z,29.13
2017-07-27T01:13:53.745Z,32.43
2017-07-27T01:16:19.774Z,29.77
2017-07-27T01:18:45.805Z,39.37
2017-07-27T01:21:11.834Z,32.97
2017-07-27T01:23:37.891Z,30.50
2017-07-27T01:26:04.679Z,34.93
2017-07-27T01:28:30.711Z,31.33
2017-07-27T01:30:57.489Z,31.50
2017-07-27T01:33:23.533Z,34.47
2017-07-27T01:35:49.574Z,35.20
2017-07-27T01:38:15.638Z,34.97
2017-07-27T01:40:41.685Z,31.43
2017-07-27T01:43:08.473Z,31.77
2017-07-27T01:45:34.526Z,31.50
2017-07-27T01:48:00.561Z,32.00
2017-07-27T01:50:26.614Z,34.73
2017-07-27T01:52:52.646Z,24.60
2017-07-27T01:55:19.427Z,29.57
2017-07-27T01:57:45.453Z,26.20
2017-07-27T02:00:11.502Z,27.67
2017-07-27T02:02:37.538Z,26.30
2017-07-27T02:05:03.573Z,24.33
2017-07-27T02:07:29.614Z,24.07
2017-07-27T02:09:56.398Z,24.17
2017-07-27T02:12:22.430Z,26.50
2017-07-27T02:14:48.484Z,24.13
2017-07-27T02:17:14.531Z,27.00
2017-07-27T02:19:40.579Z,23.90
2017-07-27T02:22:06.609Z,31.67
2017-07-27T02:24:32.646Z,23.93
2017-07-27T02:26:58.697Z,26.43
2017-07-27T02:29:24.725Z,23.77
2017-07-27T02:31:50.767Z,22.97
2017-07-27T02:34:16.816Z,24.70
2017-07-27T02:36:43.604Z,18.03
2017-07-27T02:39:09.638Z,19.57
2017-07-27T02:41:35.777Z,25.63
2017-07-27T02:44:01.813Z,19.97
2017-07-27T02:46:27.846Z,22.00
2017-07-27T02:48:53.997Z,25.70
2017-07-27T02:51:20.778Z,27.57
2017-07-27T02:53:46.797Z,27.03
2017-07-27T02:56:12.858Z,21.50
2017-07-27T02:58:40.555Z,18.43
2017-07-27T03:01:06.600Z,22.03
2017-07-27T03:03:33.394Z,19.80
2017-07-27T03:05:59.425Z,18.13
2017-07-27T03:08:26.205Z,23.60
2017-07-27T03:10:52.236Z,26.67
2017-07-27T03:13:18.277Z,24.43
2017-07-27T03:15:45.043Z,27.50
2017-07-27T03:18:11.095Z,22.30
2017-07-27T03:20:37.874Z,30.23
2017-07-27T03:23:03.902Z,25.93
2017-07-27T03:25:30.068Z,27.63
2017-07-27T03:27:56.110Z,25.53
2017-07-27T03:30:22.151Z,24.23
2017-07-27T03:32:48.183Z,27.30
2017-07-27T03:35:14.963Z,21.27
2017-07-27T03:37:41.006Z,32.10
2017-07-27T03:40:07.048Z,20.30
2017-07-27T03:42:33.069Z,21.70
2017-07-27T03:44:59.122Z,26.70
2017-07-27T03:47:25.149Z,26.87
2017-07-27T03:49:51.182Z,25.47
2017-07-27T03:52:17.236Z,25.40
2017-07-27T03:54:43.262Z,27.70
2017-07-27T03:57:09.302Z,20.17
2017-07-27T03:59:35.350Z,24.20
2017-07-27T04:02:01.390Z,20.77
2017-07-27T04:04:27.439Z,22.10
2017-07-27T04:06:53.493Z,21.00
2017-07-27T04:09:19.535Z,21.07
2017-07-27T04:11:46.362Z,22.80
2017-07-27T04:14:13.176Z,22.20
2017-07-27T04:16:39.998Z,23.47
2017-07-27T04:19:06.021Z,22.83
2017-07-27T04:21:32.813Z,25.97
2017-07-27T04:23:58.857Z,24.60
2017-07-27T04:26:25.658Z,20.67
2017-07-27T04:28:51.711Z,23.60
2017-07-27T04:31:17.750Z,30.30
2017-07-27T04:33:43.819Z,23.47
2017-07-27T04:36:09.879Z,26.20
2017-07-27T04:38:35.936Z,20.57
2017-07-27T04:41:02.737Z,27.33
2017-07-27T04:43:28.772Z,23.97
2017-07-27T04:45:55.530Z,25.63
2017-07-27T04:48:21.574Z,26.00
2017-07-27T04:50:47.593Z,35.70
2017-07-27T04:53:13.639Z,30.40
2017-07-27T04:55:39.691Z,35.67
2017-07-27T04:58:05.746Z,30.00
2017-07-27T05:00:31.743Z,30.97
2017-07-27T05:02:57.746Z,36.93
2017-07-27T05:05:23.744Z,32.97
2017-07-27T05:07:49.739Z,35.70
2017-07-27T05:10:15.730Z,30.63
2017-07-27T05:12:41.735Z,39.03
2017-07-27T05:15:08.467Z,38.80
2017-07-27T05:17:34.446Z,36.03
2017-07-27T05:20:00.423Z,33.93
2017-07-27T05:22:26.433Z,31.73
2017-07-27T05:24:52.459Z,31.23
2017-07-27T05:27:18.459Z,36.80
2017-07-27T05:29:44.481Z,32.27
2017-07-27T05:32:10.477Z,33.70
2017-07-27T05:34:36.457Z,30.23
2017-07-27T05:37:02.510Z,34.30
2017-07-27T05:39:28.499Z,38.30
2017-07-27T05:41:54.469Z,38.20
2017-07-27T05:44:20.453Z,28.67
2017-07-27T05:46:46.426Z,37.07
2017-07-27T05:49:12.398Z,33.93
2017-07-27T05:51:38.437Z,36.50
2017-07-27T05:54:04.413Z,37.77
2017-07-27T05:59:03.883Z,38.50
2017-07-27T06:01:30.620Z,30.97
2017-07-27T06:03:57.347Z,32.67
2017-07-27T06:06:23.316Z,33.63
2017-07-27T06:08:49.297Z,44.13
2017-07-27T06:11:15.271Z,34.70
2017-07-27T06:13:41.278Z,38.60
2017-07-27T06:16:07.271Z,30.70
2017-07-27T06:18:33.285Z,45.80
2017-07-27T06:20:59.271Z,38.70
2017-07-27T06:23:25.262Z,36.10
2017-07-27T06:25:51.251Z,37.10
2017-07-27T06:28:17.258Z,33.53
2017-07-27T06:30:43.243Z,32.80
2017-07-27T06:33:10.310Z,30.73
2017-07-27T06:35:36.349Z,31.10
2017-07-27T06:38:02.359Z,32.03
2017-07-27T06:40:29.152Z,33.17
2017-07-27T06:42:55.149Z,38.13
2017-07-27T06:45:21.117Z,34.43
2017-07-27T06:47:47.860Z,38.50
2017-07-27T06:50:13.841Z,42.10
2017-07-27T06:52:40.573Z,39.80
2017-07-27T06:55:06.584Z,47.73
2017-07-27T06:57:32.576Z,39.47
2017-07-27T07:00:06.339Z,41.40
2017-07-27T07:02:32.325Z,39.97
2017-07-27T07:04:58.352Z,38.33
2017-07-27T07:07:24.353Z,41.50
2017-07-27T07:09:50.333Z,46.10
2017-07-27T07:12:16.314Z,47.03
2017-07-27T07:14:42.377Z,42.33
2017-07-27T07:17:08.373Z,40.53
2017-07-27T07:19:34.354Z,45.03
2017-07-27T07:22:00.349Z,41.97
2017-07-27T07:24:27.075Z,43.20
2017-07-27T07:26:53.061Z,45.33
2017-07-27T07:29:19.058Z,37.93
2017-07-27T07:31:45.580Z,47.70
2017-07-27T07:34:11.598Z,37.03
2017-07-27T07:36:38.314Z,35.80
2017-07-27T07:39:04.281Z,39.30
2017-07-27T07:41:30.267Z,38.93
2017-07-27T07:43:56.239Z,43.67
2017-07-27T07:46:22.218Z,40.17
2017-07-27T07:48:48.197Z,37.60
2017-07-27T07:51:14.202Z,40.33
2017-07-27T07:53:40.186Z,40.30
2017-07-27T07:56:06.897Z,43.00
2017-07-27T07:58:32.876Z,40.77
2017-07-27T08:00:58.859Z,38.67
2017-07-27T08:03:24.828Z,44.13
2017-07-27T08:05:51.562Z,43.20
2017-07-27T08:08:17.536Z,39.10
2017-07-27T08:10:43.522Z,41.63
2017-07-27T08:13:09.493Z,35.13
2017-07-27T08:15:35.465Z,45.10
2017-07-27T08:18:01.442Z,44.27
2017-07-27T08:20:27.418Z,34.83
2017-07-27T08:22:53.404Z,36.93
2017-07-27T08:25:20.133Z,39.23
2017-07-27T08:27:46.868Z,36.40
2017-07-27T08:30:12.829Z,32.60
2017-07-27T08:32:38.830Z,34.57
2017-07-27T08:35:04.807Z,36.57
2017-07-27T08:37:30.786Z,32.57
2017-07-27T08:39:56.770Z,33.60
2017-07-27T08:42:22.737Z,30.50
2017-07-27T08:44:48.735Z,31.60
2017-07-27T08:47:14.696Z,32.93
2017-07-27T08:49:40.674Z,31.93
2017-07-27T08:52:06.669Z,24.83
2017-07-27T08:54:32.653Z,32.90
2017-07-27T08:56:58.708Z,36.00
2017-07-27T08:59:24.690Z,38.93
2017-07-27T09:01:50.657Z,26.17
2017-07-27T09:04:16.623Z,25.27
2017-07-27T09:06:42.598Z,30.73
2017-07-27T09:09:08.621Z,30.20
2017-07-27T09:11:34.626Z,29.40
2017-07-27T09:14:00.594Z,31.90
2017-07-27T09:16:27.329Z,31.43
2017-07-27T09:18:53.331Z,30.03
2017-07-27T09:21:20.070Z,35.23
2017-07-27T09:23:46.075Z,32.93
2017-07-27T09:26:12.079Z,30.23
2017-07-27T09:28:38.070Z,35.20
2017-07-27T09:31:04.815Z,33.10
2017-07-27T09:33:30.799Z,31.70
2017-07-27T09:35:56.779Z,31.53
2017-07-27T09:38:22.780Z,27.10
2017-07-27T09:40:48.765Z,30.63
2017-07-27T09:43:14.750Z,25.60
2017-07-27T09:45:41.469Z,31.43
2017-07-27T09:48:08.194Z,29.30
2017-07-27T09:50:34.915Z,24.87
2017-07-27T09:53:01.706Z,25.77
2017-07-27T09:55:27.694Z,22.77
2017-07-27T09:57:59.860Z,22.60
2017-07-27T10:00:25.842Z,24.63
2017-07-27T10:02:51.842Z,25.13
2017-07-27T10:05:17.829Z,22.17
2017-07-27T10:07:44.557Z,20.93
2017-07-27T10:10:10.551Z,26.20
2017-07-27T10:12:38.318Z,22.10
2017-07-27T10:15:06.089Z,19.53
2017-07-27T10:17:33.845Z,16.83
2017-07-27T10:20:01.613Z,16.20
2017-07-27T10:22:29.374Z,17.47
2017-07-27T10:24:57.142Z,15.33
2017-07-27T10:27:24.890Z,13.57
2017-07-27T10:29:52.665Z,20.10
2017-07-27T10:32:20.434Z,16.73
2017-07-27T10:34:48.211Z,21.67
2017-07-27T10:37:15.975Z,13.37
2017-07-27T10:39:43.725Z,16.90
2017-07-27T10:42:09.719Z,8.77
2017-07-27T10:44:35.689Z,13.10
2017-07-27T10:47:02.414Z,9.53
2017-07-27T10:49:28.390Z,15.03
2017-07-27T10:51:54.368Z,11.43
2017-07-27T10:54:20.355Z,12.30
2017-07-27T10:56:46.337Z,8.67
2017-07-27T10:59:12.319Z,9.70
2017-07-27T11:01:38.313Z,19.37
2017-07-27T11:04:04.302Z,8.90
2017-07-27T11:06:30.305Z,9.83
2017-07-27T11:08:56.291Z,6.57
2017-07-27T11:11:22.284Z,9.33
2017-07-27T11:13:48.284Z,12.37
2017-07-27T11:16:14.279Z,9.67
2017-07-27T11:18:47.290Z,13.83
2017-07-27T11:21:13.274Z,11.20
2017-07-27T11:23:39.254Z,11.90
2017-07-27T11:26:05.260Z,8.80
2017-07-27T11:28:31.234Z,15.13
2017-07-27T11:30:57.197Z,13.43
2017-07-27T11:33:23.204Z,12.40
2017-07-27T11:35:49.182Z,15.73
2017-07-27T11:38:15.151Z,8.60
2017-07-27T11:40:41.125Z,10.20
2017-07-27T11:43:07.089Z,13.90
2017-07-27T11:45:33.075Z,14.03
2017-07-27T11:47:59.046Z,12.70
2017-07-27T11:50:25.030Z,17.03
2017-07-27T11:52:51.771Z,22.17
2017-07-27T11:55:18.491Z,16.30
2017-07-27T11:57:45.206Z,7.80
2017-07-27T12:00:11.189Z,11.90
2017-07-27T12:02:37.158Z,8.60
2017-07-27T12:05:03.144Z,10.00
2017-07-27T12:07:29.126Z,14.53
2017-07-27T12:09:55.103Z,9.40
2017-07-27T12:12:21.081Z,10.93
2017-07-27T12:14:47.053Z,7.87
2017-07-27T12:17:13.049Z,12.00
2017-07-27T12:19:39.040Z,10.80
2017-07-27T12:22:05.044Z,16.17
2017-07-27T12:24:31.041Z,9.37
2017-07-27T12:26:57.045Z,11.07
2017-07-27T12:29:23.041Z,7.93
2017-07-27T12:31:49.030Z,18.07
2017-07-27T12:34:15.014Z,12.57
2017-07-27T12:36:40.994Z,15.80
2017-07-27T12:39:06.979Z,10.60
2017-07-27T12:41:32.970Z,15.43
2017-07-27T12:43:58.958Z,8.30
2017-07-27T12:46:24.947Z,12.47
2017-07-27T12:48:50.946Z,17.03
2017-07-27T12:51:16.947Z,15.20
2017-07-27T12:53:42.938Z,8.53
2017-07-27T12:56:09.709Z,9.10
2017-07-27T12:58:36.454Z,13.20
2017-07-27T13:01:02.434Z,5.37
2017-07-27T13:03:28.447Z,13.67
2017-07-27T13:05:55.188Z,14.37
2017-07-27T13:08:21.927Z,26.50
2017-07-27T13:10:47.914Z,8.17
2017-07-27T13:13:13.881Z,10.40
2017-07-27T13:15:39.891Z,10.20
2017-07-27T13:18:05.877Z,14.30
2017-07-27T13:20:31.874Z,17.90
2017-07-27T13:22:57.857Z,8.40
2017-07-27T13:25:23.858Z,10.87
2017-07-27T13:27:49.832Z,13.60
2017-07-27T13:30:15.832Z,13.07
2017-07-27T13:32:41.821Z,15.50
2017-07-27T13:35:07.827Z,15.77
2017-07-27T13:37:40.911Z,14.17
2017-07-27T13:40:06.887Z,9.83
2017-07-27T13:42:32.874Z,8.03
2017-07-27T13:44:59.595Z,11.70
2017-07-27T13:47:26.327Z,12.50
2017-07-27T13:49:53.048Z,16.20
2017-07-27T13:52:19.049Z,9.83
2017-07-27T13:54:45.775Z,10.57
2017-07-27T13:57:11.758Z,10.90
2017-07-27T13:59:37.745Z,14.90
2017-07-27T14:02:03.730Z,11.90
2017-07-27T14:04:29.714Z,16.07
2017-07-27T14:06:55.775Z,11.93
2017-07-27T14:09:21.762Z,12.13
2017-07-27T14:11:47.755Z,25.07
2017-07-27T14:14:13.745Z,9.00
2017-07-27T14:16:40.474Z,13.37
2017-07-27T14:19:07.197Z,15.97
2017-07-27T14:21:33.938Z,16.30
2017-07-27T14:23:59.927Z,13.70
2017-07-27T14:26:26.662Z,15.13
2017-07-27T14:28:52.636Z,10.83
2017-07-27T14:31:18.633Z,9.63
2017-07-27T14:33:44.623Z,9.57
2017-07-27T14:36:10.617Z,12.13
2017-07-27T14:38:36.642Z,8.97
2017-07-27T14:41:02.638Z,9.53
2017-07-27T14:43:28.625Z,7.73
2017-07-27T14:45:54.625Z,13.00
2017-07-27T14:48:20.605Z,16.57
2017-07-27T14:50:46.611Z,10.40
2017-07-27T14:53:12.594Z,13.93
2017-07-27T14:55:38.573Z,11.43
2017-07-27T14:58:04.561Z,19.10
2017-07-27T15:00:30.549Z,12.27
2017-07-27T15:02:56.551Z,8.93
2017-07-27T15:05:22.545Z,13.50
2017-07-27T15:07:48.542Z,7.77
2017-07-27T15:10:14.553Z,9.43
2017-07-27T15:12:40.554Z,11.80
2017-07-27T15:15:06.543Z,15.43
2017-07-27T15:17:32.537Z,14.20
2017-07-27T15:19:58.521Z,13.23
2017-07-27T15:22:24.502Z,14.90
2017-07-27T15:24:50.488Z,7.57
2017-07-27T15:27:16.465Z,14.00
2017-07-27T15:29:42.437Z,6.93
2017-07-27T15:32:08.397Z,8.90
2017-07-27T15:34:34.370Z,13.13
2017-07-27T15:37:01.094Z,7.20
2017-07-27T15:39:27.813Z,14.00
2017-07-27T15:41:53.786Z,11.47
2017-07-27T15:44:19.781Z,16.40
2017-07-27T15:46:45.757Z,8.47
2017-07-27T15:49:11.753Z,17.37
2017-07-27T15:51:37.758Z,13.73
2017-07-27T15:54:11.511Z,15.57
2017-07-27T15:56:37.502Z,4.90
2017-07-27T15:59:03.542Z,10.23
2017-07-27T16:01:29.542Z,15.20
2017-07-27T16:03:55.506Z,9.10
2017-07-27T16:06:21.490Z,9.73
2017-07-27T16:08:47.480Z,13.37
2017-07-27T16:11:14.194Z,11.30
2017-07-27T16:13:40.161Z,12.00
2017-07-27T16:16:06.155Z,10.97
2017-07-27T16:18:32.129Z,14.03
2017-07-27T16:20:58.866Z,16.63
2017-07-27T16:23:25.586Z,12.70
2017-07-27T16:25:52.309Z,11.40
2017-07-27T16:28:19.043Z,6.00
2017-07-27T16:30:45.053Z,15.43
2017-07-27T16:33:11.059Z,18.33
2017-07-27T16:35:37.045Z,9.20
2017-07-27T16:38:03.050Z,9.87
2017-07-27T16:40:29.048Z,13.17
2017-07-27T16:42:55.046Z,10.53
2017-07-27T16:45:21.034Z,12.40
2017-07-27T16:47:47.025Z,10.33
2017-07-27T16:50:13.062Z,11.63
2017-07-27T16:52:39.077Z,6.10
2017-07-27T16:55:05.087Z,7.00
2017-07-27T16:57:31.093Z,11.87
2017-07-27T17:00:03.935Z,18.77
2017-07-27T17:02:29.923Z,7.20
2017-07-27T17:04:55.942Z,9.40
2017-07-27T17:07:22.091Z,7.50
2017-07-27T17:09:48.073Z,10.53
2017-07-27T17:12:14.053Z,6.43
2017-07-27T17:14:40.055Z,16.20
2017-07-27T17:17:06.038Z,8.80
2017-07-27T17:19:32.018Z,7.90
2017-07-27T17:21:57.998Z,11.40
2017-07-27T17:24:23.986Z,11.43
2017-07-27T17:26:49.968Z,13.30
2017-07-27T17:29:15.950Z,11.23
2017-07-27T17:31:41.936Z,6.73
2017-07-27T17:34:07.935Z,15.03
2017-07-27T17:36:33.925Z,12.93
2017-07-27T17:38:59.914Z,8.40
2017-07-27T17:41:25.920Z,7.63
2017-07-27T17:43:52.646Z,6.83
2017-07-27T17:46:19.380Z,10.60
2017-07-27T17:48:45.342Z,13.93
2017-07-27T17:51:11.335Z,10.10
2017-07-27T17:53:37.331Z,20.70
2017-07-27T17:56:03.314Z,18.17
2017-07-27T17:58:29.314Z,19.83
2017-07-27T18:00:56.034Z,9.57
2017-07-27T18:03:22.774Z,12.47
2017-07-27T18:05:48.747Z,16.23
2017-07-27T18:08:14.759Z,13.20
2017-07-27T18:10:40.745Z,11.90
2017-07-27T18:13:06.747Z,11.40
2017-07-27T18:15:32.737Z,12.87
2017-07-27T18:17:58.738Z,12.90
2017-07-27T18:20:24.733Z,12.50
2017-07-27T18:22:50.730Z,25.37
2017-07-27T18:25:17.450Z,13.50
2017-07-27T18:27:44.200Z,16.20
2017-07-27T18:30:10.213Z,13.13
2017-07-27T18:32:36.199Z,14.63
2017-07-27T18:35:02.950Z,14.70
2017-07-27T18:37:28.974Z,12.70
2017-07-27T18:39:54.993Z,9.13
2017-07-27T18:42:20.977Z,11.47
2017-07-27T18:44:46.979Z,17.93
2017-07-27T18:47:12.971Z,12.23
2017-07-27T18:49:38.961Z,12.43
2017-07-27T18:52:05.706Z,13.97
2017-07-27T18:54:31.677Z,11.43
2017-07-27T18:56:57.684Z,11.50
2017-07-27T18:59:23.685Z,10.63
2017-07-27T19:01:49.669Z,20.73
2017-07-27T19:04:15.699Z,9.77
2017-07-27T19:06:41.754Z,17.13
2017-07-27T19:09:07.808Z,17.40
2017-07-27T19:11:34.588Z,13.53
2017-07-27T19:14:00.623Z,7.50
2017-07-27T19:16:26.671Z,13.57
2017-07-27T19:18:52.718Z,11.60
2017-07-27T19:21:18.743Z,14.83
2017-07-27T19:23:44.776Z,9.70
2017-07-27T19:26:11.537Z,16.90
2017-07-27T19:28:37.590Z,10.60
2017-07-27T19:31:03.629Z,16.83
2017-07-27T19:33:29.682Z,20.27
2017-07-27T19:35:55.711Z,22.70
2017-07-27T19:38:21.747Z,13.17
2017-07-27T19:40:47.783Z,18.93
2017-07-27T19:43:13.808Z,13.33
2017-07-27T19:45:39.838Z,16.63
2017-07-27T19:48:05.895Z,18.80
2017-07-27T19:50:31.937Z,10.70
2017-07-27T19:52:57.957Z,15.77
2017-07-27T19:55:24.001Z,17.97
2017-07-27T19:57:50.788Z,23.67
2017-07-27T20:00:16.851Z,13.07
2017-07-27T20:02:42.869Z,17.73
2017-07-27T20:05:08.893Z,12.03
2017-07-27T20:07:34.930Z,10.77
2017-07-27T20:10:00.941Z,14.90
2017-07-27T20:12:27.091Z,13.63
2017-07-27T20:14:53.132Z,21.23
2017-07-27T20:17:19.175Z,14.80
2017-07-27T20:19:45.189Z,10.63
2017-07-27T20:22:11.205Z,14.50
2017-07-27T20:24:37.232Z,16.27
2017-07-27T20:27:03.258Z,29.47
2017-07-27T20:29:29.273Z,11.93
2017-07-27T20:31:55.282Z,21.53
2017-07-27T20:34:21.309Z,13.63
2017-07-27T20:36:47.331Z,10.90
2017-07-27T20:39:13.342Z,8.37
2017-07-27T20:41:39.353Z,23.27
2017-07-27T20:44:05.373Z,15.70
2017-07-27T20:46:31.393Z,16.07
2017-07-27T20:48:58.171Z,17.70
2017-07-27T20:51:24.198Z,8.70
2017-07-27T20:53:50.217Z,18.40
2017-07-27T20:56:16.225Z,12.83
2017-07-27T20:58:42.242Z,12.97
2017-07-27T21:01:08.247Z,14.73
2017-07-27T21:03:34.262Z,10.90
2017-07-27T21:06:00.266Z,19.03
2017-07-27T21:08:26.293Z,25.07
2017-07-27T21:10:52.315Z,12.73
2017-07-27T21:13:18.344Z,18.40
2017-07-27T21:15:44.366Z,20.00
2017-07-27T21:18:10.405Z,13.70
2017-07-27T21:20:36.414Z,12.13
2017-07-27T21:23:02.422Z,16.73
2017-07-27T21:25:28.446Z,14.47
2017-07-27T21:27:55.197Z,10.80
2017-07-27T21:30:21.223Z,11.17
2017-07-27T21:32:47.283Z,19.03
2017-07-27T21:35:14.054Z,16.53
2017-07-27T21:37:40.107Z,14.53
2017-07-27T21:40:06.136Z,23.67
2017-07-27T21:42:32.158Z,14.13
2017-07-27T21:44:58.175Z,16.60
2017-07-27T21:47:24.195Z,15.00
2017-07-27T21:49:50.227Z,13.67
2017-07-27T21:52:16.237Z,18.47
2017-07-27T21:54:42.284Z,15.27
2017-07-27T21:57:09.047Z,15.00
2017-07-27T21:59:35.081Z,17.43
2017-07-27T22:02:01.086Z,21.20
2017-07-27T22:04:27.123Z,13.70
2017-07-27T22:06:53.885Z,13.13
2017-07-27T22:09:19.911Z,18.87
2017-07-27T22:11:45.930Z,25.50
2017-07-27T22:14:11.956Z,17.27
2017-07-27T22:16:37.985Z,19.77
2017-07-27T22:19:03.986Z,19.13
2017-07-27T22:21:30.017Z,16.33
2017-07-27T22:23:56.045Z,25.30
2017-07-27T22:26:22.063Z,19.63
2017-07-27T22:28:48.094Z,19.57
2017-07-27T22:31:14.129Z,14.87
2017-07-27T22:33:40.905Z,20.87
2017-07-27T22:36:06.909Z,17.87
2017-07-27T22:38:32.935Z,24.23
2017-07-27T22:40:58.955Z,12.77
2017-07-27T22:43:24.989Z,22.07
2017-07-27T22:45:51.005Z,22.47
2017-07-27T22:48:17.028Z,15.43
2017-07-27T22:50:43.045Z,16.33
2017-07-27T22:53:09.057Z,23.07
2017-07-27T22:55:35.126Z,14.83
2017-07-27T22:58:01.166Z,16.70
2017-07-27T23:00:27.186Z,14.57
2017-07-27T23:02:53.205Z,17.97
2017-07-27T23:05:19.225Z,13.20
2017-07-27T23:07:45.250Z,20.07
2017-07-27T23:10:11.282Z,21.03
2017-07-27T23:12:37.302Z,27.40
2017-07-27T23:15:03.338Z,23.53
2017-07-27T23:17:29.357Z,16.63
2017-07-27T23:19:55.381Z,20.57
2017-07-27T23:22:21.415Z,21.73
2017-07-27T23:24:47.437Z,20.73
2017-07-27T23:27:14.288Z,15.90
2017-07-27T23:29:40.321Z,21.30
2017-07-27T23:32:06.333Z,15.07
2017-07-27T23:34:32.428Z,20.50
2017-07-27T23:36:58.455Z,25.87
2017-07-27T23:39:24.479Z,16.00
2017-07-27T23:41:50.531Z,12.37
2017-07-27T23:44:17.285Z,25.97
2017-07-27T23:46:43.327Z,17.40
2017-07-27T23:49:09.350Z,18.87
2017-07-27T23:51:35.362Z,18.37
2017-07-27T23:54:08.451Z,22.33
2017-07-27T23:56:35.207Z,20.70
2017-07-27T23:59:01.250Z,17.57
